Time;durP1;ratioP1;P1;durP2;ratioP2;P2;SDS_P1;SDS_P2;PMS_P1;PMS_P2;Temp;Humidity;BMP_temperature;BMP_pressure;BME280_temperature;BME280_humidity;BME280_pressure;Samples;Min_cycle;Max_cycle;Signal;HPM_P1;HPM_P2
2022/06/02 00:01:11;;;;;;;12.98;8.38;;;9.90;99.90;;;;;;5115479;28;20081;-76
2022/06/02 00:03:37;;;;;;;12.10;8.50;;;;;;;;;;5067159;28;20051;-75
2022/06/02 00:06:03;;;;;;;12.50;8.23;;;;;;;;;;5115871;28;20104;-75
2022/06/02 00:08:32;;;;;;;10.77;7.93;;;;;;;;;;5115743;28;20047;-75
2022/06/02 00:11:16;;;;;;;9.90;8.27;;;9.50;99.90;;;;;;5115742;28;20040;-75
2022/06/02 00:13:57;;;;;;;11.35;7.85;;;9.90;99.90;;;;;;5115571;28;20039;-76
2022/06/02 00:16:28;;;;;;;11.52;8.38;;;;;;;;;;5115602;28;20064;-75
2022/06/02 00:18:59;;;;;;;11.98;8.30;;;10.90;99.90;;;;;;5115617;28;20407;-75
2022/06/02 00:21:30;;;;;;;11.70;8.55;;;9.80;99.90;;;;;;5098672;28;20088;-76
2022/06/02 00:24:06;;;;;;;11.20;7.32;;;;;;;;;;5098239;28;20040;-76
2022/06/02 00:26:59;;;;;;;10.18;7.13;;;9.80;99.90;;;;;;5115627;28;20093;-76
2022/06/02 00:29:46;;;;;;;11.63;7.80;;;9.70;99.90;;;;;;5098256;28;20092;-76
2022/06/02 00:32:26;;;;;;;17.67;8.05;;;10.40;99.90;;;;;;5115283;28;20529;-76
2022/06/02 00:35:11;;;;;;;11.85;8.40;;;9.60;99.90;;;;;;5115237;28;20082;-76
2022/06/02 00:37:44;;;;;;;12.32;7.93;;;9.80;99.90;;;;;;5115090;28;20045;-76
2022/06/02 00:40:10;;;;;;;11.15;8.00;;;;;;;;;;5114976;28;20046;-75
2022/06/02 00:42:51;;;;;;;13.10;7.55;;;9.40;99.90;;;;;;5115286;28;20426;-76
2022/06/02 00:45:18;;;;;;;12.95;7.90;;;9.70;99.90;;;;;;5114984;28;20043;-76
2022/06/02 00:48:06;;;;;;;11.77;7.60;;;9.90;99.90;;;;;;5115083;28;20538;-74
2022/06/02 00:51:05;;;;;;;11.75;7.75;;;10.60;99.90;;;;;;5115087;28;20062;-75
2022/06/02 01:00:08;;;;;;;10.77;8.63;;;;;;;;;;5114111;28;20181;-76
2022/06/02 01:02:44;;;;;;;10.18;7.18;;;9.30;99.90;;;;;;5114808;28;20400;-75
2022/06/02 01:05:11;;;;;;;12.80;7.90;;;9.20;99.90;;;;;;5114814;28;20040;-76
2022/06/02 01:07:56;;;;;;;10.75;7.90;;;9.50;99.90;;;;;;5114616;28;20047;-76
2022/06/02 01:10:33;;;;;;;10.65;8.10;;;9.30;99.90;;;;;;5114436;28;20172;-76
2022/06/02 01:13:08;;;;;;;12.60;8.70;;;9.10;99.90;;;;;;5114417;28;20044;-76
2022/06/02 01:16:15;;;;;;;14.52;8.98;;;9.50;99.90;;;;;;5114341;28;20470;-76
2022/06/02 01:18:41;;;;;;;15.07;8.65;;;;;;;;;;5100719;28;20403;-76
2022/06/02 01:21:28;;;;;;;12.65;8.35;;;9.30;99.90;;;;;;5114316;28;20467;-76
2022/06/02 01:24:35;;;;;;;15.05;8.95;;;9.20;99.90;;;;;;5114104;28;20503;-75
2022/06/02 01:27:10;;;;;;;13.50;9.38;;;9.10;99.90;;;;;;5017162;28;20514;-75
2022/06/02 01:29:36;;;;;;;11.90;8.63;;;;;;;;;;5114057;28;20044;-75
2022/06/02 01:32:38;;;;;;;12.77;8.45;;;9.30;99.90;;;;;;5114222;28;20050;-76
2022/06/02 01:35:46;;;;;;;13.82;9.18;;;9.10;99.90;;;;;;5114389;28;20075;-75
2022/06/02 01:38:16;;;;;;;12.65;9.25;;;;;;;;;;5015966;28;20056;-76
2022/06/02 01:41:12;;;;;;;15.50;8.98;;;9.10;99.90;;;;;;5100542;28;20048;-76
2022/06/02 01:43:58;;;;;;;13.35;8.68;;;9.20;99.90;;;;;;5113996;28;20043;-76
2022/06/02 01:46:45;;;;;;;12.65;8.80;;;;;;;;;;5097076;28;20051;-74
2022/06/02 01:49:27;;;;;;;11.32;8.18;;;9.30;99.90;;;;;;5113757;28;20039;-75
2022/06/02 01:52:02;;;;;;;18.65;9.20;;;;;;;;;;5113759;28;20039;-75
2022/06/02 01:54:45;;;;;;;13.13;8.55;;;8.90;99.90;;;;;;5113703;28;20047;-76
2022/06/02 01:57:11;;;;;;;14.23;8.50;;;;;;;;;;5113491;28;20036;-76
2022/06/02 02:00:11;;;;;;;14.00;8.57;;;9.20;99.90;;;;;;5115033;27;20079;-76
2022/06/02 02:02:37;;;;;;;12.27;8.40;;;;;;;;;;5063770;27;20515;-75
2022/06/02 02:05:22;;;;;;;13.98;8.30;;;9.10;99.90;;;;;;5099902;27;20054;-75
2022/06/02 02:07:48;;;;;;;14.90;8.98;;;;;;;;;;5116682;27;20387;-74
2022/06/02 02:10:20;;;;;;;13.20;8.30;;;10.10;99.90;;;;;;5116273;28;20383;-74
2022/06/02 02:12:46;;;;;;;12.23;8.10;;;;;;;;;;5100251;27;20119;-76
2022/06/02 02:15:12;;;;;;;12.70;8.30;;;;;;;;;;5116711;27;20491;-75
2022/06/02 02:18:08;;;;;;;10.95;7.97;;;9.20;99.90;;;;;;5116423;27;20100;-75
2022/06/02 02:21:00;;;;;;;11.13;7.30;;;8.90;99.90;;;;;;5065771;27;20131;-75
2022/06/02 02:23:47;;;;;;;15.32;7.70;;;8.70;99.90;;;;;;5116904;27;20086;-75
2022/06/02 02:26:22;;;;;;;11.18;7.75;;;;;;;;;;5116540;27;20043;-75
2022/06/02 02:29:08;;;;;;;9.68;7.63;;;9.00;99.90;;;;;;5099440;27;20092;-75
2022/06/02 02:31:39;;;;;;;9.25;7.68;;;8.90;99.90;;;;;;5065736;27;20054;-75
2022/06/02 02:34:29;;;;;;;10.27;7.53;;;8.90;99.90;;;;;;5116316;27;20470;-75
2022/06/02 02:37:19;;;;;;;10.80;7.30;;;9.00;99.90;;;;;;5116195;27;20039;-75
2022/06/02 02:40:09;;;;;;;11.10;7.53;;;8.90;99.90;;;;;;5116132;27;20074;-74
2022/06/02 02:42:48;;;;;;;11.68;7.38;;;8.90;99.90;;;;;;5116197;27;20047;-75
2022/06/02 02:45:14;;;;;;;8.73;7.00;;;;;;;;;;5116139;28;20087;-75
2022/06/02 02:48:02;;;;;;;9.35;7.25;;;8.70;99.90;;;;;;5116088;27;20043;-76
2022/06/02 02:50:41;;;;;;;8.52;6.78;;;8.70;99.90;;;;;;5116034;28;20043;-75
2022/06/02 02:53:14;;;;;;;9.02;7.07;;;8.70;99.90;;;;;;5115907;27;20043;-76
2022/06/02 02:56:00;;;;;;;12.93;6.90;;;8.80;99.90;;;;;;5116015;28;20104;-75
2022/06/02 02:58:44;;;;;;;10.38;7.50;;;;;;;;;;5116267;28;20111;-75
2022/06/02 03:01:42;;;;;;;9.32;6.97;;;8.60;99.90;;;;;;5115813;28;20521;-76
2022/06/02 03:04:11;;;;;;;10.32;6.85;;;8.70;99.90;;;;;;5115946;28;20483;-75
2022/06/02 03:06:39;;;;;;;12.88;7.40;;;;;;;;;;5116140;28;20035;-75
2022/06/02 03:09:12;;;;;;;12.02;7.63;;;8.60;99.90;;;;;;5099037;28;20075;-75
2022/06/02 03:12:00;;;;;;;11.00;6.68;;;;;;;;;;5116062;28;20093;-76
2022/06/02 03:14:44;;;;;;;10.52;7.28;;;8.80;99.90;;;;;;5115996;28;20058;-76
2022/06/02 03:17:23;;;;;;;10.50;7.85;;;8.60;99.90;;;;;;5098981;28;20043;-76
2022/06/02 03:19:49;;;;;;;9.75;7.13;;;;;;;;;;5115648;28;20071;-76
2022/06/02 03:22:45;;;;;;;10.57;7.45;;;8.50;99.90;;;;;;5117096;27;20042;-75
2022/06/02 03:25:21;;;;;;;9.75;6.93;;;8.50;99.90;;;;;;5119981;27;20043;-76
2022/06/02 03:27:55;;;;;;;10.18;7.85;;;;;;;;;;5120204;27;20382;-76
2022/06/02 03:30:23;;;;;;;11.18;7.60;;;8.70;99.90;;;;;;5119876;27;20571;-76
2022/06/02 03:32:56;;;;;;;11.15;7.70;;;;;;;;;;5119804;27;20075;-76
2022/06/02 03:35:27;;;;;;;12.40;7.40;;;;;;;;;;5119820;27;20042;-75
2022/06/02 03:38:20;;;;;;;11.45;8.30;;;8.70;99.90;;;;;;5119722;27;20061;-75
2022/06/02 03:41:01;;;;;;;8.88;7.10;;;;;;;;;;5119457;27;20039;-75
2022/06/02 03:43:27;;;;;;;9.90;7.50;;;;;;;;;;5120018;27;20633;-75
2022/06/02 03:46:20;;;;;;;12.60;7.35;;;8.40;99.90;;;;;;5119685;27;20105;-75
2022/06/02 03:49:04;;;;;;;9.65;7.28;;;8.60;99.90;;;;;;5119658;27;20043;-75
2022/06/02 03:51:50;;;;;;;10.43;7.25;;;8.50;99.90;;;;;;5119426;27;20065;-75
2022/06/02 03:54:39;;;;;;;11.52;7.10;;;8.40;99.90;;;;;;5119260;27;20043;-75
2022/06/02 03:57:33;;;;;;;8.65;6.85;;;8.50;99.90;;;;;;5119318;27;20483;-76
2022/06/02 04:00:03;;;;;;;10.25;6.95;;;8.80;99.90;;;;;;5119021;27;20047;-75
2022/06/02 04:02:48;;;;;;;9.93;6.05;;;8.60;99.90;;;;;;5119185;27;20070;-75
2022/06/02 04:05:23;;;;;;;13.48;7.60;;;8.40;99.90;;;;;;5101842;27;20484;-75
2022/06/02 04:08:26;;;;;;;10.85;6.68;;;9.60;99.90;;;;;;5119087;27;20498;-75
2022/06/02 04:10:52;;;;;;;11.27;6.90;;;;;;;;;;5119299;27;20043;-75
2022/06/02 04:13:39;;;;;;;10.02;6.90;;;8.70;99.90;;;;;;5119081;27;20488;-75
2022/06/02 04:16:26;;;;;;;10.40;6.28;;;8.90;99.90;;;;;;5119059;27;20129;-75
2022/06/02 04:22:16;;;;;;;9.40;5.78;;;;;;;;;;5118940;27;20043;-75
2022/06/02 04:25:27;;;;;;;6.85;5.57;;;8.90;99.90;;;;;;5118883;27;20122;-75
2022/06/02 04:27:55;;;;;;;8.23;5.93;;;9.10;99.90;;;;;;5080386;27;20079;-75
2022/06/02 04:30:49;;;;;;;11.20;5.50;;;9.30;99.90;;;;;;5118744;27;20080;-75
2022/06/02 04:33:28;;;;;;;9.07;5.72;;;;;;;;;;5118145;27;20050;-75
2022/06/02 04:36:04;;;;;;;7.25;5.43;;;10.10;99.90;;;;;;5118679;27;20129;-76
2022/06/02 04:38:35;;;;;;;12.20;5.30;;;9.30;99.90;;;;;;5118776;27;20043;-76
2022/06/02 04:41:20;;;;;;;9.10;5.22;;;9.40;99.90;;;;;;5118445;27;20085;-76
2022/06/02 04:44:11;;;;;;;10.57;5.13;;;9.30;99.90;;;;;;5101414;27;20046;-76
2022/06/02 04:46:37;;;;;;;9.98;4.90;;;;;;;;;;5118318;27;20035;-76
2022/06/02 04:49:32;;;;;;;10.02;5.07;;;9.30;99.90;;;;;;5118276;27;20092;-74
2022/06/02 04:52:25;;;;;;;9.63;4.60;;;9.60;99.90;;;;;;5118277;27;20043;-75
2022/06/02 04:55:53;;;;;;;6.80;4.47;;;8.80;99.90;;;;;;5118479;27;20046;-76
2022/06/02 04:58:36;;;;;;;5.18;4.40;;;9.50;99.90;;;;;;5030800;27;20132;-76
2022/06/02 05:01:17;;;;;;;8.68;4.40;;;9.70;99.90;;;;;;5114571;28;20528;-76
2022/06/02 05:03:50;;;;;;;4.63;4.13;;;10.20;99.90;;;;;;5114798;28;20035;-75
2022/06/02 05:06:16;;;;;;;6.40;4.40;;;;;;;;;;5114389;28;20506;-75
2022/06/02 05:09:20;;;;;;;8.00;4.35;;;9.90;99.90;;;;;;5114483;28;20039;-76
2022/06/02 05:11:57;;;;;;;6.55;3.95;;;10.10;99.90;;;;;;5114627;28;20127;-76
2022/06/02 05:14:50;;;;;;;5.80;3.70;;;10.90;99.90;;;;;;5114457;28;20043;-76
2022/06/02 05:17:36;;;;;;;;;;;10.10;99.90;;;;;;5114607;28;20043;-76
2022/06/02 05:20:02;;;;;;;5.95;3.83;;;;;;;;;;5114212;28;19920;-76
2022/06/02 05:22:34;;;;;;;5.72;3.53;;;;;;;;;;5114170;28;20084;-75
2022/06/02 05:25:01;;;;;;;7.90;3.65;;;;;;;;;;5114169;28;20552;-76
2022/06/02 05:27:32;;;;;;;4.50;3.60;;;;;;;;;;5114130;28;20047;-75
2022/06/02 05:30:43;;;;;;;5.25;3.88;;;10.50;99.90;;;;;;5114145;28;20082;-76
2022/06/02 05:33:30;;;;;;;11.55;3.60;;;10.60;99.90;;;;;;5113990;28;20128;-75
2022/06/02 05:36:26;;;;;;;9.07;4.32;;;10.60;99.90;;;;;;5096842;28;20043;-75
2022/06/02 05:39:13;;;;;;;11.25;4.13;;;10.80;99.90;;;;;;5115131;28;20039;-75
2022/06/02 05:41:53;;;;;;;5.53;3.78;;;10.60;99.90;;;;;;5113840;28;20539;-76
2022/06/02 05:44:52;;;;;;;9.32;3.90;;;10.80;99.90;;;;;;5096775;28;20047;-76
2022/06/02 05:47:43;;;;;;;5.00;3.63;;;10.90;99.90;;;;;;5113248;28;20076;-76
2022/06/02 05:50:09;;;;;;;7.45;3.75;;;;;;;;;;5113705;28;20467;-76
2022/06/02 05:52:38;;;;;;;10.50;3.53;;;;;;;;;;5113852;28;20422;-76
2022/06/02 05:55:09;;;;;;;9.18;3.67;;;;;;;;;;5096644;28;20123;-76
2022/06/02 05:58:08;;;;;;;6.88;3.35;;;11.00;99.90;;;;;;5096562;28;20039;-76
2022/06/02 06:00:45;;;;;;;4.18;3.10;;;;;;;;;;5113021;28;20549;-71
2022/06/02 06:03:23;;;;;;;10.32;3.70;;;11.30;99.90;;;;;;5113658;28;20040;-71
2022/06/02 06:06:21;;;;;;;4.75;2.80;;;11.40;99.90;;;;;;5113684;28;20396;-71
2022/06/02 06:09:01;;;;;;;7.10;2.80;;;11.60;99.90;;;;;;5113273;28;20032;-71
2022/06/02 06:11:27;;;;;;;8.68;2.88;;;;;;;;;;5113221;28;20031;-70
2022/06/02 06:14:11;;;;;;;5.55;2.45;;;11.90;99.90;;;;;;5113473;28;20092;-70
2022/06/02 06:16:56;;;;;;;3.15;2.47;;;11.30;99.90;;;;;;5113155;28;20042;-70
2022/06/02 06:19:58;;;;;;;6.50;2.95;;;11.40;99.90;;;;;;5096195;28;20051;-70
2022/06/02 06:22:26;;;;;;;3.80;2.30;;;12.20;99.90;;;;;;5113236;28;20040;-70
2022/06/02 06:25:02;;;;;;;3.58;2.00;;;;;;;;;;5113230;28;20043;-71
2022/06/02 06:27:45;;;;;;;4.72;2.50;;;12.00;99.90;;;;;;5113285;28;20078;-71
2022/06/02 06:30:37;;;;;;;7.75;2.45;;;12.10;99.90;;;;;;5113014;28;20043;-71
2022/06/02 06:33:15;;;;;;;5.93;2.35;;;11.80;99.90;;;;;;5099725;28;20510;-71
2022/06/02 06:35:51;;;;;;;8.68;4.68;;;11.30;99.90;;;;;;5113188;28;20043;-69
2022/06/02 06:38:38;;;;;;;7.72;2.65;;;11.90;99.90;;;;;;5112829;28;20517;-70
2022/06/02 06:41:04;;;;;;;7.70;2.72;;;;;;;;;;5112771;28;20126;-70
2022/06/02 06:44:07;;;;;;;4.53;2.33;;;12.10;99.90;;;;;;5112786;28;20046;-70
2022/06/02 06:46:43;;;;;;;10.93;3.80;;;11.30;99.90;;;;;;5112641;28;20035;-70
2022/06/02 06:49:39;;;;;;;7.50;2.83;;;12.30;99.90;;;;;;5113483;28;20039;-70
2022/06/02 06:52:42;;;;;;;6.03;2.72;;;12.40;99.90;;;;;;5112501;28;20396;-70
2022/06/02 06:55:28;;;;;;;6.95;2.72;;;12.30;99.90;;;;;;5112568;28;20040;-71
2022/06/02 06:58:06;;;;;;;5.07;2.50;;;12.80;99.90;;;;;;5095349;28;20050;-71
2022/06/02 07:00:33;;;;;;;8.00;2.83;;;;;;;;;;5095609;28;20048;-71
2022/06/02 07:03:02;;;;;;;17.95;4.07;;;;;;;;;;5112493;28;20040;-71
2022/06/02 07:05:44;;;;;;;7.75;2.80;;;12.60;99.90;;;;;;5095368;28;20046;-71
2022/06/02 07:08:18;;;;;;;4.47;2.60;;;12.80;99.90;;;;;;5112364;28;20040;-71
2022/06/02 07:12:50;;;;;;;9.30;3.10;;;12.90;99.90;;;;;;5095308;28;20039;-70
2022/06/02 07:14:04;;;;;;;6.55;2.50;;;12.90;99.90;;;;;;5112562;28;20051;-71
2022/06/02 07:16:30;;;;;;;7.72;2.35;;;;;;;;;;5095318;28;20612;-71
2022/06/02 07:19:02;;;;;;;8.50;3.03;;;;;;;;;;5112201;28;20120;-71
2022/06/02 07:21:56;;;;;;;4.43;2.60;;;13.10;99.90;;;;;;5112449;28;20036;-71
2022/06/02 07:24:44;;;;;;;8.15;2.58;;;13.20;99.90;;;;;;5112174;28;20075;-71
2022/06/02 07:27:28;;;;;;;6.68;3.47;;;13.20;99.90;;;;;;5095692;28;20126;-71
2022/06/02 07:30:48;;;;;;;5.88;2.60;;;13.10;99.90;;;;;;5112193;28;20054;-71
2022/06/02 07:34:01;;;;;;;6.20;2.88;;;13.50;99.90;;;;;;4998019;28;20103;-71
2022/06/02 07:37:04;;;;;;;5.93;2.75;;;13.90;99.90;;;;;;5034411;28;20083;-71
2022/06/02 07:39:39;;;;;;;5.95;2.70;;;13.10;99.90;;;;;;5112469;28;20399;-71
2022/06/02 07:42:16;;;;;;;8.10;2.80;;;13.30;99.90;;;;;;5113518;28;20035;-71
2022/06/02 07:44:48;;;;;;;6.55;2.67;;;13.30;99.90;;;;;;5112179;28;20103;-71
2022/06/02 07:47:23;;;;;;;4.00;2.67;;;13.50;99.90;;;;;;5112128;28;20036;-70
2022/06/02 07:50:00;;;;;;;6.78;2.88;;;13.50;99.90;;;;;;5112028;28;20043;-71
2022/06/02 07:52:35;;;;;;;9.10;3.85;;;13.40;99.90;;;;;;5112049;28;20055;-71
2022/06/02 07:55:32;;;;;;;6.03;2.90;;;13.60;99.90;;;;;;5111951;28;20044;-71
2022/06/02 07:58:21;;;;;;;7.05;2.80;;;13.30;99.90;;;;;;5098941;28;20070;-76
2022/06/02 08:00:51;;;;;;;5.38;2.75;;;;;;;;;;5111840;28;20052;-75
2022/06/02 08:03:46;;;;;;;7.93;3.63;;;13.40;99.90;;;;;;5095070;28;20071;-75
2022/06/02 08:06:37;;;;;;;2.88;2.33;;;13.40;99.90;;;;;;5112199;28;20119;-75
2022/06/02 08:09:27;;;;;;;6.03;2.65;;;13.50;99.90;;;;;;5113230;28;20509;-76
2022/06/02 08:12:01;;;;;;;4.18;2.80;;;;;;;;;;5115497;28;20507;-76
2022/06/02 08:14:33;;;;;;;6.15;2.50;;;;;;;;;;5098610;28;20035;-76
2022/06/02 08:16:59;;;;;;;9.30;2.80;;;;;;;;;;5115563;28;20031;-75
2022/06/02 08:20:07;;;;;;;10.38;2.60;;;13.90;99.90;;;;;;5115319;28;20528;-76
2022/06/02 08:22:33;;;;;;;3.42;2.53;;;;;;;;;;5115333;28;20081;-75
2022/06/02 08:25:02;;;;;;;6.57;2.47;;;;;;;;;;5115405;28;20035;-75
2022/06/02 08:27:53;;;;;;;11.45;2.92;;;14.00;99.60;;;;;;5115561;28;20433;-75
2022/06/02 08:30:26;;;;;;;4.13;2.60;;;14.00;99.90;;;;;;5115487;28;20453;-74
2022/06/02 08:32:52;;;;;;;4.75;2.20;;;;;;;;;;5098262;28;20050;-75
2022/06/02 08:35:26;;;;;;;4.88;2.63;;;14.00;99.90;;;;;;5115070;28;20464;-75
2022/06/02 08:38:01;;;;;;;3.42;2.40;;;;;;;;;;5098253;28;20039;-76
2022/06/02 08:40:28;;;;;;;4.30;2.50;;;;;;;;;;5114882;28;20122;-75
2022/06/02 08:43:06;;;;;;;4.65;2.72;;;;;;;;;;5114798;28;20059;-75
2022/06/02 08:45:54;;;;;;;4.85;2.67;;;14.40;99.10;;;;;;5114873;28;20046;-75
2022/06/02 08:48:25;;;;;;;5.45;2.70;;;13.90;99.90;;;;;;5114685;28;20395;-76
2022/06/02 08:51:28;;;;;;;7.07;2.75;;;14.40;98.70;;;;;;5115054;28;20043;-75
2022/06/02 08:53:54;;;;;;;8.18;2.60;;;;;;;;;;5114988;28;20399;-75
2022/06/02 08:56:38;;;;;;;6.78;2.50;;;;;;;;;;5098071;28;20035;-75
2022/06/02 08:59:31;;;;;;;8.50;2.40;;;14.50;99.90;;;;;;5114928;28;20047;-75
2022/06/02 09:02:03;;;;;;;4.90;2.92;;;;;;;;;;5094278;28;20048;-75
2022/06/02 09:05:06;;;;;;;6.32;2.67;;;14.90;98.40;;;;;;5094193;28;20036;-75
2022/06/02 09:07:31;;;;;;;;;;;14.60;99.60;;;;;;5094735;28;20051;-75
2022/06/02 09:10:22;;;;;;;4.22;2.42;;;15.00;98.30;;;;;;5094143;28;19915;-75
2022/06/02 09:12:57;;;;;;;5.15;2.45;;;15.60;99.90;;;;;;5093895;28;20078;-75
2022/06/02 09:15:47;;;;;;;8.43;2.72;;;14.60;99.90;;;;;;5093847;28;20040;-75
2022/06/02 09:18:14;;;;;;;4.43;2.50;;;;;;;;;;5093842;28;20086;-75
2022/06/02 09:20:55;;;;;;;2.95;2.50;;;15.10;97.80;;;;;;5093628;28;20040;-75
2022/06/02 09:23:36;;;;;;;9.15;2.65;;;14.70;99.90;;;;;;5093833;28;20078;-75
2022/06/02 09:26:27;;;;;;;7.20;2.50;;;15.00;97.60;;;;;;5093825;28;20365;-75
2022/06/02 09:29:23;;;;;;;4.78;2.22;;;15.10;98.90;;;;;;5093906;28;20127;-75
2022/06/02 09:31:49;;;;;;;7.50;2.50;;;;;;;;;;5075547;28;20152;-75
2022/06/02 09:34:21;;;;;;;5.57;2.25;;;15.50;99.90;;;;;;5076810;28;20498;-75
2022/06/02 09:36:54;;;;;;;4.17;2.73;;;15.60;99.90;;;;;;5093641;28;20039;-76
2022/06/02 09:39:35;;;;;;;6.95;2.63;;;15.30;99.90;;;;;;5076452;28;20301;-76
2022/06/02 09:42:57;;;;;;;6.93;2.65;;;15.00;98.50;;;;;;5093558;28;20051;-76
2022/06/02 09:46:00;;;;;;;3.60;2.38;;;15.50;97.80;;;;;;5035772;28;20489;-76
2022/06/02 09:48:50;;;;;;;5.75;2.47;;;15.70;97.10;;;;;;5093435;28;20051;-76
2022/06/02 09:51:34;;;;;;;7.80;2.42;;;15.50;99.90;;;;;;5093282;28;20044;-76
2022/06/02 09:54:19;;;;;;;4.85;2.20;;;15.50;97.60;;;;;;5093229;28;20044;-76
2022/06/02 09:56:48;;;;;;;7.75;2.70;;;14.50;99.90;;;;;;5093244;28;20079;-75
2022/06/02 09:59:28;;;;;;;6.22;2.28;;;15.60;96.70;;;;;;5093099;28;20073;-76
2022/06/02 10:02:33;;;;;;;4.32;2.55;;;14.30;99.90;;;;;;5076106;28;20408;-75
2022/06/02 10:05:00;;;;;;;8.68;2.50;;;;;;;;;;5093304;28;20075;-75
2022/06/02 10:07:26;;;;;;;6.22;2.75;;;;;;;;;;5076131;28;20040;-76
2022/06/02 10:09:58;;;;;;;5.57;2.70;;;15.60;99.90;;;;;;5093000;28;20048;-76
2022/06/02 10:15:38;;;;;;;4.13;2.60;;;16.20;99.90;;;;;;5092801;28;20454;-76
2022/06/02 10:18:25;;;;;;;4.40;2.45;;;15.60;97.50;;;;;;5092814;28;20075;-76
2022/06/02 10:21:08;;;;;;;7.25;2.65;;;15.60;97.10;;;;;;5092800;28;20419;-76
2022/06/02 10:24:00;;;;;;;5.97;2.38;;;15.70;96.30;;;;;;5092698;28;20087;-76
2022/06/02 10:26:57;;;;;;;4.95;2.38;;;15.90;97.30;;;;;;5075725;28;20036;-76
2022/06/02 10:29:59;;;;;;;8.13;2.50;;;15.40;99.90;;;;;;5092006;28;20046;-76
2022/06/02 10:32:53;;;;;;;4.05;2.22;;;16.80;99.90;;;;;;5058841;28;20048;-76
2022/06/02 10:35:37;;;;;;;5.28;2.22;;;;;;;;;;5092788;28;20044;-76
2022/06/02 10:38:31;;;;;;;2.40;2.20;;;15.10;99.60;;;;;;5092441;28;20073;-76
2022/06/02 10:41:09;;;;;;;7.47;2.42;;;16.00;96.70;;;;;;5092341;28;20032;-76
2022/06/02 10:43:52;;;;;;;5.57;2.40;;;15.90;95.50;;;;;;5075712;28;20126;-76
2022/06/02 10:46:50;;;;;;;4.47;2.10;;;16.10;96.20;;;;;;5092427;28;20361;-76
2022/06/02 10:49:30;;;;;;;5.70;2.30;;;15.80;99.70;;;;;;5092602;28;20423;-75
2022/06/02 10:52:24;;;;;;;3.83;2.83;;;17.10;99.90;;;;;;5092516;28;20044;-76
2022/06/02 10:55:20;;;;;;;6.15;2.47;;;16.20;94.70;;;;;;5092074;28;20040;-75
2022/06/02 10:58:14;;;;;;;4.53;2.33;;;15.80;98.90;;;;;;5092210;28;20105;-75
2022/06/02 11:00:50;;;;;;;5.85;2.13;;;;;;;;;;5085598;28;20081;-75
2022/06/02 11:03:34;;;;;;;4.97;2.40;;;16.20;94.90;;;;;;5112543;28;20040;-76
2022/06/02 11:06:21;;;;;;;7.25;2.70;;;16.80;99.80;;;;;;5112486;28;20035;-76
2022/06/02 11:09:12;;;;;;;6.00;2.40;;;16.70;94.80;;;;;;5112679;28;20040;-76
2022/06/02 11:12:09;;;;;;;4.85;2.42;;;16.70;94.40;;;;;;5112351;28;20047;-76
2022/06/02 11:14:56;;;;;;;5.00;2.50;;;16.80;95.90;;;;;;5112423;28;20059;-76
2022/06/02 11:17:25;;;;;;;6.47;2.75;;;;;;;;;;5112204;28;20433;-76
2022/06/02 11:20:09;;;;;;;4.70;2.10;;;16.80;94.20;;;;;;5095263;28;20051;-76
2022/06/02 11:23:03;;;;;;;3.60;2.30;;;17.60;98.70;;;;;;5112321;28;20038;-75
2022/06/02 11:25:54;;;;;;;3.47;2.20;;;17.10;94.10;;;;;;5112246;28;20040;-75
2022/06/02 11:28:55;;;;;;;3.33;2.20;;;16.70;95.40;;;;;;5112360;28;20044;-76
2022/06/02 11:31:30;;;;;;;4.70;1.95;;;17.00;94.10;;;;;;5112591;28;20043;-75
2022/06/02 11:34:16;;;;;;;5.57;2.22;;;16.80;95.00;;;;;;5112204;28;20046;-75
2022/06/02 11:37:04;;;;;;;5.80;2.58;;;17.50;98.50;;;;;;5061565;28;20048;-76
2022/06/02 11:39:31;;;;;;;4.78;2.10;;;;;;;;;;5112303;28;20431;-76
2022/06/02 11:42:00;;;;;;;3.22;2.00;;;;;;;;;;5112366;28;20383;-76
2022/06/02 11:44:44;;;;;;;4.05;2.28;;;16.80;98.00;;;;;;5097162;28;20133;-76
2022/06/02 11:47:39;;;;;;;6.75;2.22;;;16.60;98.30;;;;;;5099071;28;20046;-76
2022/06/02 11:50:33;;;;;;;3.95;2.00;;;16.10;95.30;;;;;;5064974;28;20043;-76
2022/06/02 11:53:26;;;;;;;6.97;2.20;;;15.50;98.10;;;;;;5116276;28;20399;-76
2022/06/02 11:56:00;;;;;;;6.80;2.20;;;17.20;98.40;;;;;;5099242;28;20427;-76
2022/06/02 11:58:29;;;;;;;6.05;2.30;;;;;;;;;;5116050;28;20075;-76
2022/06/02 12:01:21;;;;;;;5.82;2.20;;;16.90;98.10;;;;;;5115640;28;20423;-76
2022/06/02 12:03:58;;;;;;;5.65;2.60;;;16.80;98.80;;;;;;5115900;28;20126;-76
2022/06/02 12:06:57;;;;;;;5.88;2.30;;;;;;;;;;5098790;28;20035;-76
2022/06/02 12:09:53;;;;;;;8.32;2.38;;;17.40;98.10;;;;;;5115716;28;20100;-76
2022/06/02 12:12:19;;;;;;;4.53;2.28;;;;;;;;;;5098840;28;20036;-76
2022/06/02 12:14:55;;;;;;;6.82;2.10;;;;;;;;;;5115661;28;20058;-76
2022/06/02 12:17:32;;;;;;;3.75;2.00;;;17.10;96.80;;;;;;5115403;28;20050;-76
2022/06/02 12:20:20;;;;;;;3.92;1.90;;;17.00;96.60;;;;;;5115411;28;20046;-76
2022/06/02 12:23:09;;;;;;;2.63;1.88;;;17.00;96.20;;;;;;5115559;28;20047;-76
2022/06/02 12:25:38;;;;;;;4.88;2.13;;;18.00;96.70;;;;;;5115461;28;20042;-76
2022/06/02 12:28:04;;;;;;;2.65;2.25;;;;;;;;;;5115328;28;20040;-76
2022/06/02 12:30:48;;;;;;;2.65;1.98;;;16.70;96.60;;;;;;5098602;28;20039;-76
2022/06/02 12:33:50;;;;;;;2.53;2.10;;;17.90;96.60;;;;;;5115575;28;20099;-76
2022/06/02 12:37:01;;;;;;;7.00;2.33;;;17.50;96.70;;;;;;5093763;28;20426;-76
2022/06/02 12:39:30;;;;;;;3.65;2.13;;;;;;;;;;5110448;28;20048;-76
2022/06/02 12:42:21;;;;;;;3.45;2.15;;;18.10;96.60;;;;;;5115328;28;20075;-76
2022/06/02 12:45:07;;;;;;;4.10;2.10;;;18.30;96.90;;;;;;5098252;28;20368;-76
2022/06/02 12:47:48;;;;;;;3.20;1.92;;;16.90;96.70;;;;;;5115119;28;20039;-76
2022/06/02 12:50:18;;;;;;;5.88;2.58;;;18.90;96.40;;;;;;5115113;28;20048;-76
2022/06/02 12:53:02;;;;;;;6.28;2.50;;;18.30;95.40;;;;;;5114993;28;20127;-76
2022/06/02 12:55:40;;;;;;;5.78;2.22;;;18.90;95.50;;;;;;5114614;28;20047;-76
2022/06/02 12:58:34;;;;;;;9.35;2.60;;;19.20;95.70;;;;;;5097811;28;20124;-76
2022/06/02 13:01:18;;;;;;;7.78;2.63;;;19.20;95.30;;;;;;5114458;28;20052;-76
2022/06/02 13:03:56;;;;;;;4.55;2.50;;;17.80;95.30;;;;;;5114850;28;20044;-76
2022/06/02 13:06:23;;;;;;;6.55;2.30;;;;;;;;;;5114712;28;20039;-76
2022/06/02 13:09:03;;;;;;;9.27;2.50;;;17.60;95.80;;;;;;5114818;28;20082;-76
2022/06/02 13:11:31;;;;;;;5.43;2.25;;;;;;;;;;5114520;28;20046;-76
2022/06/02 13:14:14;;;;;;;6.20;2.60;;;18.20;92.50;;;;;;5114344;28;20039;-76
2022/06/02 13:16:52;;;;;;;5.30;2.28;;;;;;;;;;5114306;28;20093;-76
2022/06/02 13:19:42;;;;;;;4.05;2.50;;;19.00;95.70;;;;;;5097463;28;20046;-76
2022/06/02 13:22:37;;;;;;;5.05;2.55;;;18.00;95.60;;;;;;5114258;28;20042;-76
2022/06/02 13:25:06;;;;;;;9.82;2.40;;;17.70;95.50;;;;;;5114348;28;20051;-77
2022/06/02 13:28:03;;;;;;;9.98;3.30;;;17.80;95.10;;;;;;5114221;28;20040;-77
2022/06/02 13:30:29;;;;;;;4.78;2.30;;;;;;;;;;5114330;28;20518;-76
2022/06/02 13:33:32;;;;;;;8.75;2.47;;;19.20;95.40;;;;;;5114096;28;20479;-77
2022/06/02 13:36:08;;;;;;;5.32;2.35;;;19.20;95.40;;;;;;5114309;28;20043;-77
2022/06/02 13:38:55;;;;;;;3.83;2.30;;;17.80;94.90;;;;;;5113922;28;20051;-77
2022/06/02 13:41:51;;;;;;;6.45;2.10;;;18.90;95.30;;;;;;5113708;28;20076;-76
2022/06/02 13:44:17;;;;;;;7.70;2.40;;;;;;;;;;5113818;28;20119;-75
2022/06/02 13:46:51;;;;;;;3.53;2.30;;;18.70;95.40;;;;;;5097092;28;20071;-75
2022/06/02 13:49:51;;;;;;;3.80;2.28;;;18.10;90.70;;;;;;5113675;28;20035;-75
2022/06/02 13:52:46;;;;;;;5.43;2.80;;;16.80;95.10;;;;;;5113705;28;20044;-75
2022/06/02 13:58:13;;;;;;;4.05;2.40;;;18.00;91.40;;;;;;5113443;28;20497;-76
2022/06/02 14:01:03;;;;;;;3.47;2.33;;;18.60;95.30;;;;;;5113180;28;20055;-75
2022/06/02 14:03:49;;;;;;;4.32;2.28;;;18.60;94.90;;;;;;5113648;28;20457;-75
2022/06/02 14:06:25;;;;;;;5.38;2.30;;;17.80;94.20;;;;;;5113153;28;20123;-76
2022/06/02 14:08:57;;;;;;;4.20;2.15;;;18.80;89.50;;;;;;5113448;28;20046;-75
2022/06/02 14:11:42;;;;;;;4.50;2.35;;;18.80;89.40;;;;;;5113493;28;20040;-76
2022/06/02 14:14:45;;;;;;;4.50;2.30;;;18.40;93.50;;;;;;5096446;28;20395;-76
2022/06/02 14:17:53;;;;;;;4.82;2.33;;;19.70;94.00;;;;;;5113271;28;20047;-76
2022/06/02 14:20:19;;;;;;;7.65;2.42;;;;;;;;;;5112909;28;20044;-76
2022/06/02 14:22:50;;;;;;;4.72;2.40;;;19.30;93.40;;;;;;5113036;28;20385;-76
2022/06/02 14:25:35;;;;;;;8.93;2.65;;;18.30;93.10;;;;;;5113132;28;20035;-77
2022/06/02 14:28:06;;;;;;;6.03;2.10;;;20.00;93.40;;;;;;5113091;28;20040;-76
2022/06/02 14:30:49;;;;;;;8.27;2.10;;;19.50;93.60;;;;;;5113223;28;20433;-76
2022/06/02 14:33:37;;;;;;;3.22;2.08;;;19.70;89.20;;;;;;5113053;28;20278;-76
2022/06/02 14:36:18;;;;;;;5.20;2.10;;;19.70;89.40;;;;;;5113589;28;20040;-76
2022/06/02 14:39:09;;;;;;;6.55;2.20;;;19.60;93.10;;;;;;5112900;28;20047;-76
2022/06/02 14:41:47;;;;;;;4.75;2.40;;;20.20;92.90;;;;;;5112806;28;20036;-76
2022/06/02 14:44:26;;;;;;;5.72;2.40;;;19.10;93.10;;;;;;5112959;28;20479;-75
2022/06/02 14:47:04;;;;;;;4.18;2.17;;;19.80;93.20;;;;;;5114259;28;20114;-76
2022/06/02 14:50:00;;;;;;;7.10;2.40;;;20.10;92.90;;;;;;5112960;28;20048;-76